Time;durP1;ratioP1;P1;durP2;ratioP2;P2;SDS_P1;SDS_P2;PMS_P1;PMS_P2;Temp;Humidity;BMP_temperature;BMP_pressure;BME280_temperature;BME280_humidity;BME280_pressure;Samples;Min_cycle;Max_cycle;Signal;HPM_P1;HPM_P2
2022/08/26 00:01:04;;;;;;;8.65;3.72;;;;;;;17.34;73.09;98056.89;1739507;82;20991;-60
2022/08/26 00:03:31;;;;;;;5.03;3.75;;;;;;;17.24;73.35;98055.94;1736410;82;20948;-59
2022/08/26 00:05:57;;;;;;;9.63;3.80;;;;;;;17.15;73.52;98051.71;1739589;82;21097;-59
2022/08/26 00:08:24;;;;;;;6.40;3.80;;;;;;;17.07;73.76;98060.16;1738245;82;21998;-60
2022/08/26 00:10:51;;;;;;;7.90;4.05;;;;;;;17.05;73.86;98058.34;1740367;82;20975;-63
2022/08/26 00:13:17;;;;;;;6.50;3.90;;;;;;;17.07;73.95;98059.57;1742999;81;20893;-61
2022/08/26 00:15:45;;;;;;;10.75;4.37;;;;;;;17.08;74.01;98058.46;1741601;82;21008;-61
2022/08/26 00:18:13;;;;;;;8.15;4.00;;;;;;;17.09;74.07;98055.20;1737275;82;21028;-61
2022/08/26 00:20:39;;;;;;;9.53;4.03;;;;;;;17.09;74.15;98051.94;1739794;82;21130;-62
2022/08/26 00:23:06;;;;;;;9.33;3.92;;;;;;;17.06;74.24;98053.15;1740954;82;20888;-60
2022/08/26 00:25:33;;;;;;;11.55;4.25;;;;;;;17.01;74.46;98053.34;1737141;82;21415;-62
2022/08/26 00:28:00;;;;;;;7.28;3.80;;;;;;;16.98;74.54;98048.03;1739935;82;20920;-62
2022/08/26 00:30:28;;;;;;;6.35;3.90;;;;;;;16.91;74.68;98049.70;1738694;81;20996;-62
2022/08/26 00:32:55;;;;;;;6.75;3.80;;;;;;;16.88;74.96;98047.64;1736990;82;21119;-62
2022/08/26 00:35:22;;;;;;;6.67;3.87;;;;;;;16.87;75.09;98050.10;1741522;82;20865;-60
2022/08/26 00:37:49;;;;;;;6.97;4.08;;;;;;;16.89;75.08;98041.09;1738263;82;21119;-61
2022/08/26 00:40:28;;;;;;;7.90;4.03;;;;;;;16.94;75.06;98050.37;1740113;82;37751;-59
2022/08/26 00:42:54;;;;;;;7.62;4.37;;;;;;;16.96;75.05;98052.18;1741639;82;21002;-59
2022/08/26 00:45:21;;;;;;;6.92;3.90;;;;;;;16.98;75.03;98048.61;1739074;82;21221;-60
2022/08/26 00:47:56;;;;;;;10.28;4.33;;;;;;;17.00;74.95;98048.48;1738285;82;20983;-60
2022/08/26 00:50:28;;;;;;;7.72;4.00;;;;;;;17.02;74.81;98049.53;1739705;82;21193;-59
2022/08/26 00:52:54;;;;;;;7.95;4.03;;;;;;;17.04;74.64;98044.57;1740656;82;20988;-60
2022/08/26 00:55:28;;;;;;;9.33;4.33;;;;;;;17.03;74.56;98050.54;1738469;82;20916;-60
2022/08/26 00:57:55;;;;;;;7.85;4.50;;;;;;;17.04;74.50;98051.34;1718946;82;21628;-60
2022/08/26 01:00:25;;;;;;;11.18;4.60;;;;;;;17.03;74.27;98047.03;1738629;82;21027;-62
2022/08/26 01:02:52;;;;;;;9.35;4.17;;;;;;;16.99;74.08;98046.12;1744364;81;20980;-60
2022/08/26 01:05:19;;;;;;;6.65;4.72;;;;;;;16.97;73.98;98049.16;1740218;82;20940;-61
2022/08/26 01:07:46;;;;;;;7.28;4.90;;;;;;;16.94;74.02;98049.02;1738231;81;20905;-60
2022/08/26 01:10:18;;;;;;;9.13;4.85;;;;;;;16.86;74.14;98049.89;1736931;82;21227;-63
2022/08/26 01:12:49;;;;;;;6.62;4.22;;;;;;;16.83;74.35;98054.05;1741315;82;20991;-60
2022/08/26 01:15:22;;;;;;;9.28;4.00;;;;;;;16.82;74.60;98051.65;1741265;81;21481;-59
2022/08/26 01:17:49;;;;;;;7.92;4.15;;;;;;;16.81;74.61;98055.48;1721414;81;21668;-62
2022/08/26 01:20:28;;;;;;;12.93;4.12;;;;;;;16.77;74.52;98054.57;1741183;82;21002;-59
2022/08/26 01:23:07;;;;;;;8.45;4.00;;;;;;;16.73;74.57;98060.38;1736530;82;21198;-62
2022/08/26 01:25:38;;;;;;;8.18;4.05;;;;;;;16.74;74.64;98060.62;1741583;82;20967;-61
2022/08/26 01:28:08;;;;;;;7.12;4.22;;;;;;;16.76;74.45;98061.09;1741010;82;20980;-59
2022/08/26 01:30:35;;;;;;;13.95;4.40;;;;;;;16.78;74.32;98062.34;1738332;82;21534;-62
2022/08/26 01:33:04;;;;;;;7.47;4.35;;;;;;;16.77;74.25;98055.92;1745005;81;20964;-60
2022/08/26 01:35:31;;;;;;;7.03;4.42;;;;;;;16.73;74.23;98056.33;1739013;82;21185;-60
2022/08/26 01:37:59;;;;;;;15.00;4.30;;;;;;;16.73;74.33;98056.33;1738453;82;20941;-60
2022/08/26 01:40:30;;;;;;;7.87;3.60;;;;;;;16.71;74.36;98059.92;1737760;82;21537;-60
2022/08/26 01:42:59;;;;;;;6.90;4.22;;;;;;;16.70;74.34;98052.95;1741441;80;20912;-62
2022/08/26 01:45:28;;;;;;;6.25;4.03;;;;;;;16.69;74.27;98052.70;1740518;82;22217;-60
2022/08/26 01:47:56;;;;;;;11.85;4.58;;;;;;;16.69;74.22;98049.44;1741636;82;21530;-62
2022/08/26 01:50:27;;;;;;;7.92;3.98;;;;;;;16.71;74.25;98047.75;1741898;81;21114;-61
2022/08/26 01:52:54;;;;;;;8.88;4.00;;;;;;;16.72;74.33;98048.00;1742461;81;20939;-60
2022/08/26 01:55:21;;;;;;;5.55;4.30;;;;;;;16.70;74.28;98046.19;1742038;81;21509;-60
2022/08/26 01:57:48;;;;;;;6.33;4.03;;;;;;;16.67;74.23;98046.28;1738590;82;21486;-59
2022/08/26 02:00:15;;;;;;;7.37;4.70;;;;;;;16.62;74.22;98047.02;1711288;81;21240;-62
2022/08/26 02:02:45;;;;;;;7.40;4.00;;;;;;;16.56;74.51;98055.87;1740316;82;20960;-61
2022/08/26 02:05:16;;;;;;;6.42;3.52;;;;;;;16.52;74.67;98050.09;1743059;82;21036;-62
2022/08/26 02:07:44;;;;;;;7.75;3.52;;;;;;;16.49;74.97;98045.33;1740338;82;20944;-61
2022/08/26 02:10:11;;;;;;;7.87;3.60;;;;;;;16.50;74.73;98044.99;1741739;82;20932;-61
2022/08/26 02:12:38;;;;;;;6.58;3.40;;;;;;;16.56;74.51;98049.69;1743478;82;21170;-59
2022/08/26 02:15:09;;;;;;;7.50;3.35;;;;;;;16.63;73.70;98044.56;1739971;82;20948;-61
2022/08/26 02:17:43;;;;;;;7.53;3.90;;;;;;;16.72;73.04;98043.94;1738787;82;20952;-62
2022/08/26 02:20:13;;;;;;;6.58;3.83;;;;;;;16.81;71.90;98043.31;1736088;81;20857;-62
2022/08/26 02:22:40;;;;;;;10.70;4.00;;;;;;;16.88;71.30;98046.29;1743881;81;20975;-61
2022/08/26 02:25:42;;;;;;;14.87;4.00;;;;;;;16.94;70.90;98048.46;1742979;82;21114;-62
2022/08/26 02:28:11;;;;;;;12.00;3.75;;;;;;;17.00;70.62;98047.72;1743366;82;21026;-60
2022/08/26 02:30:37;;;;;;;11.57;3.62;;;;;;;17.02;70.23;98040.86;1744852;82;21407;-59
2022/08/26 02:33:04;;;;;;;6.62;3.95;;;;;;;17.03;70.01;98052.45;1740027;82;20912;-59
2022/08/26 02:35:31;;;;;;;6.10;3.62;;;;;;;17.03;70.11;98043.77;1738480;82;21422;-59
2022/08/26 02:37:59;;;;;;;6.10;3.83;;;;;;;17.01;70.30;98042.52;1738259;82;21999;-61
2022/08/26 02:40:30;;;;;;;6.70;3.50;;;;;;;16.98;71.01;98050.73;1736384;81;21542;-60
2022/08/26 02:42:56;;;;;;;13.95;3.98;;;;;;;16.90;71.64;98046.75;1739286;82;20988;-60
2022/08/26 02:45:25;;;;;;;8.15;3.80;;;;;;;16.80;72.17;98047.92;1742352;82;20877;-60
2022/08/26 02:47:51;;;;;;;9.53;4.08;;;;;;;16.70;72.44;98051.59;1738873;82;21146;-62
2022/08/26 02:50:18;;;;;;;6.47;4.10;;;;;;;16.64;72.73;98048.83;1746472;82;21312;-59
2022/08/26 02:52:45;;;;;;;9.00;3.87;;;;;;;16.63;72.79;98045.91;1741942;82;21038;-62
2022/08/26 02:55:11;;;;;;;6.30;3.80;;;;;;;16.66;72.65;98049.30;1739072;82;20924;-61
2022/08/26 02:57:38;;;;;;;9.25;3.92;;;;;;;16.67;72.69;98049.53;1742685;81;21081;-63
2022/08/26 03:00:07;;;;;;;6.22;4.00;;;;;;;16.68;72.25;98048.40;1742100;81;21529;-61
2022/08/26 03:02:34;;;;;;;6.15;3.67;;;;;;;16.69;71.76;98050.00;1738301;81;21217;-61
2022/08/26 03:05:00;;;;;;;7.62;4.17;;;;;;;16.71;71.80;98054.52;1739712;82;21002;-63
2022/08/26 03:07:27;;;;;;;6.42;4.22;;;;;;;16.69;72.15;98051.34;1741555;82;21562;-62
2022/08/26 03:09:53;;;;;;;6.03;3.50;;;;;;;16.61;72.71;98052.98;1737238;82;21448;-60
2022/08/26 03:12:20;;;;;;;6.85;3.62;;;;;;;16.49;73.00;98049.39;1740730;82;20857;-60
2022/08/26 03:14:47;;;;;;;6.10;3.92;;;;;;;16.34;73.46;98050.17;1736038;82;21152;-60
2022/08/26 03:17:13;;;;;;;6.70;4.00;;;;;;;16.22;73.96;98048.72;1737306;82;21431;-61
2022/08/26 03:19:40;;;;;;;6.92;4.37;;;;;;;16.16;74.20;98053.26;1741687;82;21327;-61
2022/08/26 03:22:06;;;;;;;7.67;3.77;;;;;;;16.11;74.39;98052.88;1739304;82;21036;-61
2022/08/26 03:24:33;;;;;;;8.83;4.08;;;;;;;16.10;74.62;98047.27;1737974;82;20916;-61
2022/08/26 03:27:00;;;;;;;7.17;4.28;;;;;;;16.10;74.92;98044.56;1738881;82;21127;-60
2022/08/26 03:32:13;;;;;;;6.97;3.37;;;;;;;16.07;75.03;98047.10;1739546;82;21406;-62
2022/08/26 03:34:39;;;;;;;6.47;4.00;;;;;;;16.02;75.24;98047.27;1738670;81;21376;-61
2022/08/26 03:37:06;;;;;;;5.17;3.40;;;;;;;16.02;75.37;98039.97;1738976;82;20975;-60
2022/08/26 03:39:34;;;;;;;11.20;4.05;;;;;;;16.04;75.37;98043.14;1739497;82;21109;-61
2022/08/26 03:42:00;;;;;;;7.15;3.80;;;;;;;16.02;75.47;98039.97;1738640;82;21047;-60
2022/08/26 03:44:26;;;;;;;5.42;4.10;;;;;;;16.03;75.65;98035.36;1741077;82;20952;-63
2022/08/26 03:46:54;;;;;;;6.70;4.00;;;;;;;16.04;75.60;98041.02;1746736;81;20900;-61
2022/08/26 03:49:20;;;;;;;7.67;4.25;;;;;;;16.01;75.62;98043.80;1740042;82;21465;-61
2022/08/26 03:51:46;;;;;;;4.55;3.80;;;;;;;16.00;75.67;98036.00;1737579;82;22030;-60
2022/08/26 03:54:13;;;;;;;6.20;3.72;;;;;;;15.98;75.71;98034.19;1741543;82;20900;-60
2022/08/26 03:56:41;;;;;;;9.45;3.75;;;;;;;15.93;75.90;98031.11;1738050;82;21009;-62
2022/08/26 03:59:07;;;;;;;7.78;3.77;;;;;;;15.89;76.08;98038.28;1743985;82;21675;-60
2022/08/26 04:01:36;;;;;;;4.80;3.75;;;;;;;15.88;76.37;98031.28;1741264;82;21047;-62
2022/08/26 04:04:03;;;;;;;5.90;4.03;;;;;;;15.91;76.53;98034.70;1738253;81;21116;-62
2022/08/26 04:06:41;;;;;;;4.97;4.10;;;;;;;15.91;76.61;98033.34;1727186;81;21456;-61
2022/08/26 04:09:13;;;;;;;7.85;4.28;;;;;;;15.96;76.76;98037.23;1713234;81;20940;-60
2022/08/26 04:11:42;;;;;;;6.72;4.10;;;;;;;15.99;76.75;98027.10;1704593;81;20980;-61
2022/08/26 04:14:13;;;;;;;6.78;4.00;;;;;;;16.00;76.91;98030.05;1699693;81;20967;-61
2022/08/26 04:16:41;;;;;;;7.83;3.80;;;;;;;16.08;77.22;98030.59;1751535;81;21200;-61
2022/08/26 04:19:10;;;;;;;7.87;4.28;;;;;;;16.14;77.38;98027.92;1738207;81;20894;-62
2022/08/26 04:21:38;;;;;;;10.58;4.50;;;;;;;16.23;77.41;98030.58;1744515;81;21511;-63
2022/08/26 04:24:05;;;;;;;8.68;4.28;;;;;;;16.26;77.32;98028.58;1741863;82;20865;-60
2022/08/26 04:26:38;;;;;;;7.92;4.25;;;;;;;16.30;77.37;98034.91;1739751;82;21586;-60
2022/08/26 04:29:09;;;;;;;9.85;4.22;;;;;;;16.38;77.15;98029.48;1739438;82;21321;-63
2022/08/26 04:31:37;;;;;;;6.00;4.45;;;;;;;16.54;77.03;98023.52;1740204;82;20943;-60
2022/08/26 04:34:04;;;;;;;8.55;4.33;;;;;;;16.72;76.49;98027.72;1742746;81;21416;-62
2022/08/26 04:36:31;;;;;;;6.12;4.80;;;;;;;16.85;76.21;98026.09;1744598;81;20947;-63
2022/08/26 04:38:59;;;;;;;7.15;4.65;;;;;;;17.00;76.65;98030.12;1744223;81;21092;-62
2022/08/26 04:41:26;;;;;;;8.30;4.87;;;;;;;17.13;76.62;98031.76;1746291;82;21107;-63
2022/08/26 04:43:55;;;;;;;7.17;4.50;;;;;;;17.27;76.80;98020.09;1744140;82;20864;-63
2022/08/26 04:46:23;;;;;;;9.08;4.90;;;;;;;17.41;76.56;98024.66;1745979;82;21003;-60
2022/08/26 04:48:51;;;;;;;11.05;4.62;;;;;;;17.55;76.58;98026.53;1742282;82;21475;-61
2022/08/26 04:51:19;;;;;;;10.55;5.10;;;;;;;17.67;76.24;98028.48;1744864;81;21030;-61
2022/08/26 04:53:45;;;;;;;6.50;4.70;;;;;;;17.81;75.72;98023.55;1746049;81;21194;-62
2022/08/26 04:56:13;;;;;;;8.85;5.08;;;;;;;17.95;75.43;98027.28;1739175;81;20884;-61
2022/08/26 04:58:40;;;;;;;12.88;5.10;;;;;;;18.08;73.81;98028.90;1740177;82;21430;-60
2022/08/26 05:01:07;;;;;;;15.90;5.58;;;;;;;18.24;73.27;98029.24;1737665;82;20999;-62
2022/08/26 05:03:35;;;;;;;19.92;5.10;;;;;;;18.38;72.77;98026.98;1737362;82;21474;-61
2022/08/26 05:06:06;;;;;;;20.80;5.60;;;;;;;18.51;73.35;98031.08;1738651;82;21248;-61
2022/08/26 05:08:32;;;;;;;15.18;5.20;;;;;;;18.64;72.53;98025.30;1743059;82;20947;-61
2022/08/26 05:11:03;;;;;;;9.03;5.30;;;;;;;18.83;71.99;98029.55;1742616;81;20914;-61
2022/08/26 05:13:29;;;;;;;16.02;5.62;;;;;;;19.01;71.44;98029.50;1741126;82;21440;-63
2022/08/26 05:15:56;;;;;;;11.73;5.53;;;;;;;19.19;70.87;98030.59;1738472;81;20960;-62
2022/08/26 05:18:24;;;;;;;11.57;6.30;;;;;;;19.33;70.08;98030.98;1739989;82;21069;-61
2022/08/26 05:20:52;;;;;;;15.85;6.87;;;;;;;19.45;70.02;98021.45;1738418;82;20932;-62
2022/08/26 05:23:21;;;;;;;13.60;6.55;;;;;;;19.56;70.13;98028.75;1741288;82;20920;-61
2022/08/26 05:25:48;;;;;;;16.55;7.47;;;;;;;19.64;70.02;98027.02;1737650;82;20952;-62
2022/08/26 05:28:17;;;;;;;18.70;7.47;;;;;;;19.72;70.08;98026.84;1739493;82;20961;-61
2022/08/26 05:30:43;;;;;;;14.63;7.03;;;;;;;19.77;69.97;98021.73;1741923;82;21113;-63
2022/08/26 05:33:10;;;;;;;19.00;6.47;;;;;;;19.83;69.86;98021.70;1740860;82;20936;-61
2022/08/26 05:35:37;;;;;;;19.90;6.72;;;;;;;19.89;69.58;98020.86;1740397;82;20884;-62
2022/08/26 05:38:07;;;;;;;19.70;7.05;;;;;;;19.95;69.60;98025.67;1738926;82;21419;-61
2022/08/26 05:40:43;;;;;;;14.63;5.60;;;;;;;20.03;69.87;98026.09;1736884;82;20861;-62
2022/08/26 05:43:12;;;;;;;15.28;5.90;;;;;;;20.12;69.75;98019.11;1740648;82;21104;-61
2022/08/26 05:45:41;;;;;;;17.05;6.20;;;;;;;20.23;69.52;98022.33;1741678;82;21015;-61
2022/08/26 05:48:08;;;;;;;11.63;5.65;;;;;;;20.35;69.64;98022.23;1752203;80;20998;-60
2022/08/26 05:50:41;;;;;;;20.77;6.40;;;;;;;20.45;69.52;98021.70;1750389;80;21034;-60
2022/08/26 05:53:08;;;;;;;16.62;5.58;;;;;;;20.57;69.67;98019.44;1726846;80;21509;-60
2022/08/26 05:55:40;;;;;;;11.18;6.08;;;;;;;20.67;69.05;98018.11;1766787;80;21191;-63
2022/08/26 05:58:07;;;;;;;17.62;6.20;;;;;;;20.75;68.00;98017.89;1731725;81;20938;-60
2022/08/26 06:00:37;;;;;;;16.90;6.00;;;;;;;20.88;67.03;98017.21;1719066;80;21042;-61
2022/08/26 06:03:03;;;;;;;16.10;5.65;;;;;;;20.98;66.84;98020.73;1729473;80;20999;-61
2022/08/26 06:05:38;;;;;;;18.25;6.05;;;;;;;21.06;66.66;98011.59;1735056;80;21092;-61
2022/08/26 06:08:14;;;;;;;10.13;6.00;;;;;;;21.16;65.97;98016.47;1715407;81;21290;-61
2022/08/26 06:10:53;;;;;;;12.25;6.30;;;;;;;21.26;65.51;98011.82;1721632;80;21106;-61
2022/08/26 06:13:25;;;;;;;14.60;6.05;;;;;;;21.37;65.43;98014.73;1772374;80;21149;-62
2022/08/26 06:15:53;;;;;;;16.37;6.05;;;;;;;21.48;64.52;98015.16;1723273;80;21592;-62
2022/08/26 06:18:29;;;;;;;9.55;5.78;;;;;;;21.59;62.76;98010.71;1727116;81;21059;-62
2022/08/26 06:20:55;;;;;;;;;;;;;;;21.70;62.58;98006.23;1727857;80;21133;-62
2022/08/26 06:26:16;;;;;;;22.27;6.15;;;;;;;21.90;63.32;98014.39;1730167;80;20987;-61
2022/08/26 06:28:42;;;;;;;19.52;6.65;;;;;;;21.98;63.08;98007.33;1741115;80;21085;-63
2022/08/26 06:31:09;;;;;;;17.73;6.40;;;;;;;22.07;64.06;98001.05;1730865;80;21202;-61
2022/08/26 06:33:36;;;;;;;19.07;5.90;;;;;;;22.16;63.73;98005.67;1729472;81;21115;-59
2022/08/26 06:36:05;;;;;;;13.13;6.25;;;;;;;22.24;63.13;97999.76;1720073;80;21118;-61
2022/08/26 06:38:33;;;;;;;18.25;6.70;;;;;;;22.33;62.66;98000.28;1719705;80;21015;-61
2022/08/26 06:41:00;;;;;;;23.87;7.17;;;;;;;22.43;62.28;98001.03;1723273;81;21210;-61
2022/08/26 06:43:34;;;;;;;23.30;7.63;;;;;;;22.52;62.51;98001.55;1713807;80;21122;-61
2022/08/26 06:46:04;;;;;;;20.65;7.55;;;;;;;22.61;61.63;98008.92;1719744;80;21123;-59
2022/08/26 06:48:32;;;;;;;23.75;7.85;;;;;;;22.70;61.76;98014.93;1734033;80;21955;-60
2022/08/26 06:51:16;;;;;;;29.50;8.25;;;;;;;22.78;61.23;98005.67;1746203;80;21190;-60
2022/08/26 06:53:46;;;;;;;28.67;8.48;;;;;;;22.87;60.86;98010.27;1739363;82;21395;-62
2022/08/26 06:56:15;;;;;;;25.82;7.33;;;;;;;22.98;60.83;98009.06;1754848;80;21157;-60
2022/08/26 06:58:42;;;;;;;21.00;7.33;;;;;;;23.07;60.16;98003.53;1731487;80;21803;-60
2022/08/26 07:01:23;;;;;;;24.20;8.35;;;;;;;23.18;59.99;98001.48;1720446;81;21350;-63
2022/08/26 07:03:52;;;;;;;22.15;7.15;;;;;;;23.26;59.40;97997.12;1753997;79;21038;-64
2022/08/26 07:06:18;;;;;;;18.12;6.75;;;;;;;23.36;58.13;97999.80;1736400;80;21060;-62
2022/08/26 07:08:50;;;;;;;16.27;6.85;;;;;;;23.43;58.14;97997.14;1735865;80;20989;-61
2022/08/26 07:11:19;;;;;;;14.50;6.60;;;;;;;23.54;57.99;98003.50;1716811;80;21281;-60
2022/08/26 07:13:46;;;;;;;18.62;7.97;;;;;;;23.62;58.24;97998.33;1702353;83;21060;-60
2022/08/26 07:16:16;;;;;;;18.07;7.35;;;;;;;23.69;57.06;97990.20;1684136;83;21014;-61
2022/08/26 07:18:43;;;;;;;20.02;8.00;;;;;;;23.78;57.40;97997.51;1706910;82;22027;-62
2022/08/26 07:21:13;;;;;;;14.40;6.35;;;;;;;23.86;57.10;97990.92;1680281;82;21113;-61
2022/08/26 07:23:40;;;;;;;15.85;6.40;;;;;;;23.95;56.93;97998.27;1691948;82;21797;-61
2022/08/26 07:26:15;;;;;;;12.07;6.00;;;;;;;24.03;57.06;97994.41;1690435;82;21015;-60
2022/08/26 07:28:44;;;;;;;15.43;6.43;;;;;;;24.14;57.65;97989.83;1704668;81;20954;-60
2022/08/26 07:31:12;;;;;;;20.25;6.28;;;;;;;24.25;58.08;97989.35;1668080;83;21122;-62
2022/08/26 07:33:40;;;;;;;17.57;5.78;;;;;;;24.37;58.49;97991.79;1674688;84;21153;-62
2022/08/26 07:36:07;;;;;;;12.68;5.20;;;;;;;24.46;57.39;97990.88;1663356;83;21549;-59
2022/08/26 07:38:35;;;;;;;11.05;6.05;;;;;;;24.51;57.72;97986.98;1698900;83;21130;-61
2022/08/26 07:41:02;;;;;;;13.62;5.67;;;;;;;24.58;56.86;97980.19;1683001;84;21090;-61
2022/08/26 07:43:29;;;;;;;18.07;5.47;;;;;;;24.63;55.39;97988.63;1730557;81;21168;-61
2022/08/26 07:45:55;;;;;;;14.00;5.30;;;;;;;24.67;55.08;97979.84;1735136;80;21054;-62
2022/08/26 07:48:22;;;;;;;11.78;5.28;;;;;;;24.74;55.24;97982.61;1727972;81;21260;-62
2022/08/26 07:50:49;;;;;;;14.85;5.47;;;;;;;24.79;54.55;97983.66;1726539;80;21095;-62
2022/08/26 07:53:16;;;;;;;11.63;5.83;;;;;;;24.84;55.04;97987.41;1713930;80;21554;-62
2022/08/26 07:55:43;;;;;;;16.70;6.50;;;;;;;24.89;54.97;97984.30;1733760;81;21316;-62
2022/08/26 07:58:09;;;;;;;17.82;5.90;;;;;;;24.98;55.41;97981.99;1746582;81;21019;-61
2022/08/26 08:00:36;;;;;;;16.77;5.45;;;;;;;25.09;55.62;97975.97;1744147;80;21208;-61
2022/08/26 08:03:04;;;;;;;17.25;5.90;;;;;;;25.21;55.76;97974.25;1743902;80;20933;-62
2022/08/26 08:05:31;;;;;;;13.32;5.30;;;;;;;25.31;55.41;97974.88;1744439;80;20970;-63
2022/08/26 08:08:01;;;;;;;15.15;5.37;;;;;;;25.46;54.41;97966.91;1730689;80;21070;-61
2022/08/26 08:10:29;;;;;;;12.10;5.70;;;;;;;25.46;54.41;97966.91;1727327;81;21096;-61
2022/08/26 08:12:56;;;;;;;16.90;4.95;;;;;;;25.57;55.01;97972.43;1715929;81;21246;-62
2022/08/26 08:15:26;;;;;;;9.40;4.60;;;;;;;25.78;53.73;97958.75;1743603;80;21155;-61
2022/08/26 08:17:53;;;;;;;6.15;4.12;;;;;;;25.78;53.73;97958.75;1723451;80;21104;-61
2022/08/26 08:20:20;;;;;;;6.00;4.30;;;;;;;25.90;52.75;97960.32;1718403;80;21015;-61
2022/08/26 08:22:48;;;;;;;9.45;4.25;;;;;;;26.03;52.29;97957.38;1744930;80;21038;-62
2022/08/26 08:25:14;;;;;;;7.62;4.45;;;;;;;26.13;52.23;97961.53;1751542;80;21113;-63
2022/08/26 08:27:42;;;;;;;10.58;4.58;;;;;;;26.24;51.52;97954.06;1710834;80;20944;-63
2022/08/26 08:30:09;;;;;;;6.90;4.60;;;;;;;26.31;51.15;97950.52;1713949;81;20979;-61
2022/08/26 08:32:39;;;;;;;7.12;3.92;;;;;;;26.38;51.31;97954.62;1721671;80;21022;-63
2022/08/26 08:35:07;;;;;;;8.60;4.20;;;;;;;26.50;50.60;97953.45;1744394;80;21078;-63
2022/08/26 08:37:34;;;;;;;6.17;4.30;;;;;;;26.60;50.03;97952.05;1717587;80;21227;-61
2022/08/26 08:40:03;;;;;;;8.43;4.33;;;;;;;26.67;49.32;97947.91;1735020;80;21007;-61
2022/08/26 08:42:35;;;;;;;8.98;4.55;;;;;;;26.72;49.68;97954.38;1731733;80;20986;-61
2022/08/26 08:45:14;;;;;;;5.33;3.87;;;;;;;26.80;49.49;97955.96;1734282;80;21075;-61
2022/08/26 08:47:56;;;;;;;6.87;3.90;;;;;;;26.90;49.29;97957.86;1705640;82;21387;-60
2022/08/26 08:50:33;;;;;;;10.38;4.17;;;;;;;27.02;48.52;97960.18;1736831;80;21123;-61
2022/08/26 08:53:16;;;;;;;10.18;3.67;;;;;;;27.14;48.34;97949.33;1696389;82;21084;-60
2022/08/26 08:55:53;;;;;;;8.10;3.87;;;;;;;27.25;46.59;97952.04;1671254;83;21805;-62
2022/08/26 08:58:23;;;;;;;10.18;3.92;;;;;;;27.35;46.58;97956.68;1739171;80;20991;-60
2022/08/26 09:01:10;;;;;;;9.70;3.70;;;;;;;27.44;44.90;97948.83;1751763;80;21536;-60
2022/08/26 09:04:11;;;;;;;5.42;3.60;;;;;;;27.55;43.12;97942.66;1747421;79;21542;-61
2022/08/26 09:06:38;;;;;;;6.05;3.65;;;;;;;27.67;42.47;97945.73;1740569;80;21483;-63
2022/08/26 09:09:19;;;;;;;10.70;3.72;;;;;;;27.81;42.37;97947.59;1732107;80;21100;-61
2022/08/26 09:12:04;;;;;;;4.37;3.60;;;;;;;27.92;41.15;97938.65;1748483;80;20939;-61
2022/08/26 09:14:56;;;;;;;6.72;3.50;;;;;;;27.92;39.36;97937.86;1710224;82;21232;-61
2022/08/26 09:17:38;;;;;;;;;;;;;;;27.86;40.13;97933.41;1714435;82;21135;-62
2022/08/26 09:20:49;;;;;;;5.62;3.67;;;;;;;27.96;40.51;97932.52;1722692;81;20128;-61
2022/08/26 09:23:25;;;;;;;5.28;3.60;;;;;;;28.03;39.23;97932.48;1742865;81;20990;-62
2022/08/26 09:26:23;;;;;;;7.42;3.40;;;;;;;28.06;37.83;97922.05;1736940;81;20948;-62
2022/08/26 09:31:51;;;;;;;6.25;3.58;;;;;;;28.20;38.32;97919.75;1733607;81;21488;-63
2022/08/26 09:34:29;;;;;;;8.68;3.50;;;;;;;28.26;36.86;97921.65;1737476;80;21090;-62
2022/08/26 09:37:09;;;;;;;10.53;3.37;;;;;;;28.24;36.15;97915.77;1717284;81;20986;-63
2022/08/26 09:39:42;;;;;;;6.03;3.25;;;;;;;28.24;36.42;97918.52;1721416;81;21042;-62
2022/08/26 09:42:29;;;;;;;5.97;3.27;;;;;;;28.31;35.67;97906.06;1663477;83;20921;-61
2022/08/26 09:45:09;;;;;;;9.40;3.30;;;;;;;28.35;35.42;97910.96;1702227;83;22092;-62
2022/08/26 09:47:56;;;;;;;5.95;3.05;;;;;;;28.40;36.52;97912.48;1708194;82;21497;-60
2022/08/26 09:51:01;;;;;;;10.82;3.40;;;;;;;28.45;36.72;97907.30;1680633;83;21059;-60
2022/08/26 09:53:43;;;;;;;9.25;3.30;;;;;;;28.53;35.65;97904.45;1674835;83;21652;-62
2022/08/26 09:56:30;;;;;;;6.28;3.10;;;;;;;28.65;36.35;97903.96;1662099;85;21042;-60
2022/08/26 09:59:25;;;;;;;7.95;3.10;;;;;;;28.74;35.27;97909.17;1721973;80;21657;-61
2022/08/26 10:02:27;;;;;;;7.87;3.15;;;;;;;28.80;34.35;97902.03;1740766;80;21043;-60
2022/08/26 10:05:09;;;;;;;10.35;3.02;;;;;;;28.84;33.98;97899.21;1722227;80;20940;-60
2022/08/26 10:07:47;;;;;;;8.05;2.90;;;;;;;28.93;34.84;97907.17;1722960;82;21483;-60
2022/08/26 10:10:33;;;;;;;8.35;3.02;;;;;;;29.02;33.52;97899.17;1722550;82;21081;-61
2022/08/26 10:13:27;;;;;;;10.20;3.08;;;;;;;29.03;32.76;97894.44;1716190;82;21704;-60
2022/08/26 10:16:23;;;;;;;6.87;3.12;;;;;;;29.00;33.90;97895.26;1670061;84;21052;-59
2022/08/26 10:19:10;;;;;;;6.12;3.05;;;;;;;29.10;34.49;97897.10;1669752;83;21006;-61
2022/08/26 10:22:06;;;;;;;4.83;3.10;;;;;;;29.15;33.64;97895.27;1724886;81;20931;-61
2022/08/26 10:24:49;;;;;;;5.92;2.40;;;;;;;29.20;34.10;97905.08;1760042;79;21129;-59
2022/08/26 10:27:55;;;;;;;6.05;2.87;;;;;;;29.30;34.20;97900.78;1732035;81;21306;-62
2022/08/26 10:30:23;;;;;;;6.75;2.75;;;;;;;29.41;33.93;97900.05;1737153;80;21015;-61
2022/08/26 10:32:57;;;;;;;8.65;2.80;;;;;;;29.49;32.42;97894.59;1744707;80;21057;-58
2022/08/26 10:35:25;;;;;;;12.55;2.85;;;;;;;29.53;33.53;97905.00;1731561;80;21545;-61
2022/08/26 10:37:59;;;;;;;7.80;2.58;;;;;;;29.52;31.94;97906.19;1697790;82;21131;-62
2022/08/26 10:40:42;;;;;;;6.42;2.60;;;;;;;29.48;32.05;97898.56;1691210;83;21129;-60
2022/08/26 10:43:20;;;;;;;8.23;2.92;;;;;;;29.48;33.01;97895.80;1661781;85;21115;-61
2022/08/26 10:45:53;;;;;;;7.72;2.80;;;;;;;29.57;31.97;97886.40;1680367;82;21054;-61
2022/08/26 10:48:42;;;;;;;7.22;2.67;;;;;;;29.62;31.58;97895.59;1681899;82;21048;-63
2022/08/26 10:51:10;;;;;;;6.58;3.17;;;;;;;29.56;32.11;97884.07;1701407;82;21085;-62
2022/08/26 10:54:04;;;;;;;11.43;3.12;;;;;;;29.50;32.21;97890.65;1683129;83;21299;-61
2022/08/26 10:56:53;;;;;;;5.75;2.85;;;;;;;29.49;31.68;97886.31;1681334;83;21522;-62
2022/08/26 10:59:43;;;;;;;5.70;2.80;;;;;;;29.55;32.31;97880.52;1673526;83;21146;-61
2022/08/26 11:02:36;;;;;;;5.78;2.75;;;;;;;29.67;32.28;97874.42;1689588;83;21061;-62
2022/08/26 11:05:07;;;;;;;8.70;3.30;;;;;;;29.79;32.70;97868.31;1691210;83;21529;-59
2022/08/26 11:07:44;;;;;;;6.08;2.62;;;;;;;29.92;31.97;97871.27;1673901;83;21134;-62
2022/08/26 11:10:27;;;;;;;12.93;2.90;;;;;;;30.05;31.64;97861.78;1671064;82;21095;-61
2022/08/26 11:13:09;;;;;;;6.90;2.75;;;;;;;30.15;31.06;97851.16;1686934;84;21550;-62
2022/08/26 11:15:56;;;;;;;9.70;3.55;;;;;;;30.31;31.07;97854.75;1680537;83;21384;-60
2022/08/26 11:18:39;;;;;;;9.50;3.12;;;;;;;30.43;31.00;97852.03;1716734;80;21121;-61
2022/08/26 11:21:49;;;;;;;6.85;3.00;;;;;;;30.52;30.97;97852.23;1719398;81;21187;-60
2022/08/26 11:24:53;;;;;;;7.10;2.83;;;;;;;30.63;30.64;97852.80;1746018;80;21484;-64
2022/08/26 11:27:37;;;;;;;6.50;3.30;;;;;;;30.73;30.63;97849.64;1720036;81;21107;-62
2022/08/26 11:30:19;;;;;;;5.30;3.33;;;;;;;30.82;29.68;97853.38;1738832;80;21098;-61
2022/08/26 11:32:54;;;;;;;14.28;4.17;;;;;;;30.93;29.32;97847.64;1708409;82;21015;-60
2022/08/26 11:35:35;;;;;;;8.65;3.37;;;;;;;31.07;29.90;97845.95;1697380;82;22403;-61
2022/08/26 11:38:04;;;;;;;6.67;3.25;;;;;;;31.18;28.73;97844.34;1694182;83;20977;-61
2022/08/26 11:40:42;;;;;;;8.93;3.22;;;;;;;31.25;29.71;97840.03;1704270;82;20980;-61
2022/08/26 11:43:19;;;;;;;10.10;3.02;;;;;;;31.41;30.06;97837.27;1734996;80;21087;-59
2022/08/26 11:46:06;;;;;;;13.00;3.27;;;;;;;31.58;29.33;97834.72;1697871;83;21072;-60
2022/08/26 11:48:35;;;;;;;7.65;3.02;;;;;;;31.72;28.34;97841.29;1683036;83;21636;-62
2022/08/26 11:51:14;;;;;;;5.08;2.80;;;;;;;31.86;29.28;97831.23;1696634;83;21036;-63
2022/08/26 11:53:43;;;;;;;7.15;3.17;;;;;;;32.03;29.98;97833.41;1703158;83;20956;-61
2022/08/26 11:56:18;;;;;;;11.83;3.52;;;;;;;32.21;29.15;97828.16;1693722;82;21503;-62
2022/08/26 11:58:45;;;;;;;10.45;3.05;;;;;;;32.34;28.44;97829.76;1676930;83;21539;-61
2022/08/26 12:01:15;;;;;;;11.15;2.95;;;;;;;32.49;27.97;97825.20;1696766;83;21933;-60
2022/08/26 12:03:49;;;;;;;10.32;3.20;;;;;;;32.62;26.35;97820.52;1686734;83;20893;-60